Wellston, Michigan
Current Conditions -  °F | °C
As of 7:55 PM on Saturday 25 Oct 2014 (Local Time) from KMBL Reporting Station
Clear Clear  
Wind Chill: 13°   Ceiling: Unl
Heat Index: 13°   Visibility: 10mi
Dew Point:   Wind: 17mph
Humidity: 44%   Direction: 290°WNW
Pressure: 29.81"   Gusts: NA
Location:  44.22°N, 85.96°W
Report Text: KMBL 252355Z AUTO 29015KT 10SM CLR 13/01 A2981 RMK AO1 10150 20120 52003
Loading
Personal Weather Stations






























Interactive Weather Map
Tropical Storm Tracking
New forecast layout! Learn more

10-Day Weather Forecast

Advertisements
Track Severe Weather on mobile